createdAt,value
2018-03-21T00:00:00.578Z,6.12
2018-03-21T00:02:28.955Z,7.03
2018-03-21T00:04:57.371Z,7.60
2018-03-21T00:07:24.946Z,6.45
2018-03-21T00:09:52.589Z,6.32
2018-03-21T00:12:20.213Z,6.72
2018-03-21T00:14:48.587Z,6.80
2018-03-21T00:17:16.323Z,7.05
2018-03-21T00:19:43.934Z,8.40
2018-03-21T00:22:12.354Z,6.55
2018-03-21T00:24:40.733Z,7.85
2018-03-21T00:27:08.360Z,7.18
2018-03-21T00:29:36.048Z,8.07
2018-03-21T00:32:03.625Z,8.10
2018-03-21T00:34:31.206Z,8.60
2018-03-21T00:36:58.889Z,7.32
2018-03-21T00:39:26.509Z,7.30
2018-03-21T00:41:54.175Z,8.65
2018-03-21T00:44:21.762Z,7.37
2018-03-21T00:46:49.383Z,7.47
2018-03-21T00:49:17.068Z,7.90
2018-03-21T00:51:44.644Z,7.22
2018-03-21T00:54:12.280Z,6.68
2018-03-21T00:56:40.710Z,7.28
2018-03-21T00:59:09.118Z,7.95
2018-03-21T01:01:38.857Z,7.72
2018-03-21T01:04:06.503Z,7.70
2018-03-21T01:06:34.104Z,7.72
2018-03-21T01:09:01.715Z,8.55
2018-03-21T01:11:29.366Z,9.10
2018-03-21T01:13:56.940Z,9.02
2018-03-21T01:16:24.528Z,7.12
2018-03-21T01:18:52.151Z,7.57
2018-03-21T01:21:19.812Z,7.75
2018-03-21T01:23:47.421Z,7.30
2018-03-21T01:26:15.053Z,8.18
2018-03-21T01:28:42.687Z,7.43
2018-03-21T01:31:11.069Z,7.53
2018-03-21T01:33:39.416Z,7.53
2018-03-21T01:36:07.824Z,8.10
2018-03-21T01:38:35.486Z,7.55
2018-03-21T01:41:03.890Z,7.43
2018-03-21T01:43:31.596Z,7.93
2018-03-21T01:45:59.191Z,6.97
2018-03-21T01:48:26.791Z,7.53
2018-03-21T01:50:54.406Z,7.15
2018-03-21T01:53:22.800Z,8.20
2018-03-21T01:55:50.423Z,6.55
2018-03-21T01:58:18.012Z,6.93
2018-03-21T02:00:45.615Z,7.47
2018-03-21T02:03:13.219Z,7.05
2018-03-21T02:05:40.951Z,8.57
2018-03-21T02:08:08.607Z,6.62
2018-03-21T02:10:38.319Z,6.65
2018-03-21T02:13:09.265Z,7.45
2018-03-21T02:15:39.015Z,6.72
2018-03-21T02:18:09.679Z,7.55
2018-03-21T02:20:39.314Z,7.53
2018-03-21T02:23:07.949Z,6.95
2018-03-21T02:25:39.123Z,6.80
2018-03-21T02:28:08.706Z,7.22
2018-03-21T02:30:39.438Z,8.13
2018-03-21T02:33:09.202Z,7.43
2018-03-21T02:35:41.488Z,7.30
2018-03-21T02:38:13.055Z,7.07
2018-03-21T02:40:43.038Z,7.00
2018-03-21T02:43:13.689Z,7.20
2018-03-21T02:45:43.670Z,7.18
2018-03-21T02:48:14.068Z,8.60
2018-03-21T02:50:44.736Z,8.30
2018-03-21T02:53:14.425Z,7.55
2018-03-21T02:55:44.464Z,7.95
2018-03-21T02:58:14.205Z,8.25
2018-03-21T03:00:44.327Z,6.45
2018-03-21T03:03:15.327Z,7.43
2018-03-21T03:05:45.046Z,7.62
2018-03-21T03:08:16.593Z,9.13
2018-03-21T03:10:46.845Z,8.90
2018-03-21T03:13:16.640Z,8.88
2018-03-21T03:15:46.327Z,7.93
2018-03-21T03:18:16.115Z,8.25
2018-03-21T03:20:46.581Z,7.20
2018-03-21T03:23:16.012Z,6.62
2018-03-21T03:25:43.594Z,7.57
2018-03-21T03:28:11.246Z,6.28
2018-03-21T03:30:38.818Z,6.80
2018-03-21T03:33:06.477Z,7.10
2018-03-21T03:35:34.075Z,8.02
2018-03-21T03:38:01.758Z,8.07
2018-03-21T03:40:29.410Z,8.07
2018-03-21T03:42:57.023Z,7.72
2018-03-21T03:45:24.643Z,8.02
2018-03-21T03:47:53.110Z,7.50
2018-03-21T03:50:20.766Z,7.30
2018-03-21T03:52:48.399Z,7.68
2018-03-21T03:55:16.014Z,7.90
2018-03-21T03:57:44.351Z,8.00
2018-03-21T04:00:12.803Z,7.10
2018-03-21T04:02:40.431Z,7.30
2018-03-21T04:05:08.092Z,7.57
2018-03-21T04:07:35.700Z,7.43
2018-03-21T04:10:03.319Z,7.55
2018-03-21T04:12:30.965Z,7.35
2018-03-21T04:14:58.582Z,7.20
2018-03-21T04:17:26.167Z,8.55
2018-03-21T04:19:54.566Z,6.85
2018-03-21T04:22:22.231Z,7.37
2018-03-21T04:24:49.851Z,7.93
2018-03-21T04:27:17.439Z,7.93
2018-03-21T04:29:45.838Z,7.40
2018-03-21T04:32:13.455Z,8.02
2018-03-21T04:34:41.121Z,7.40
2018-03-21T04:37:08.733Z,8.20
2018-03-21T04:39:36.342Z,7.90
2018-03-21T04:42:03.960Z,8.30
2018-03-21T04:44:31.533Z,8.55
2018-03-21T04:46:59.168Z,8.48
2018-03-21T04:49:26.750Z,9.25
2018-03-21T04:51:54.364Z,8.48
2018-03-21T04:54:22.764Z,9.38
2018-03-21T04:56:50.359Z,10.10
2018-03-21T04:59:17.991Z,10.07
2018-03-21T05:01:45.618Z,11.90
2018-03-21T05:04:13.261Z,10.15
2018-03-21T05:06:40.851Z,11.10
2018-03-21T05:09:09.218Z,9.73
2018-03-21T05:11:36.834Z,8.43
2018-03-21T05:14:04.415Z,9.02
2018-03-21T05:16:32.039Z,9.45
2018-03-21T05:18:59.640Z,10.15
2018-03-21T05:21:27.274Z,9.07
2018-03-21T05:23:54.847Z,9.07
2018-03-21T05:26:22.472Z,8.13
2018-03-21T05:28:50.812Z,9.40
2018-03-21T05:31:18.453Z,9.55
2018-03-21T05:33:46.094Z,9.95
2018-03-21T05:36:13.748Z,9.77
2018-03-21T05:38:41.368Z,9.43
2018-03-21T05:41:08.950Z,10.10
2018-03-21T05:43:37.385Z,10.05
2018-03-21T05:46:04.962Z,10.80
2018-03-21T05:48:32.597Z,9.50
2018-03-21T05:51:00.201Z,9.80
2018-03-21T05:53:28.562Z,9.15
2018-03-21T05:55:56.197Z,10.05
2018-03-21T05:58:23.861Z,10.00
2018-03-21T06:00:51.490Z,11.15
2018-03-21T06:03:19.866Z,10.43
2018-03-21T06:05:48.270Z,11.40
2018-03-21T06:08:15.849Z,12.30
2018-03-21T06:10:43.447Z,11.25
2018-03-21T06:13:11.105Z,11.52
2018-03-21T06:15:38.686Z,11.73
2018-03-21T06:18:06.282Z,11.15
2018-03-21T06:20:33.947Z,13.32
2018-03-21T06:23:01.566Z,14.45
2018-03-21T06:25:29.919Z,13.35
2018-03-21T06:27:57.534Z,16.12
2018-03-21T06:30:25.123Z,15.15
2018-03-21T06:32:52.758Z,13.52
2018-03-21T06:35:20.432Z,14.27
2018-03-21T06:37:48.066Z,13.10
2018-03-21T06:40:16.478Z,10.30
2018-03-21T06:42:44.092Z,10.85
2018-03-21T06:45:11.811Z,11.52
2018-03-21T06:47:39.391Z,12.25
2018-03-21T06:50:07.112Z,12.77
2018-03-21T06:52:34.708Z,17.42
2018-03-21T06:55:02.309Z,14.30
2018-03-21T06:57:30.675Z,14.73
2018-03-21T07:00:00.047Z,13.20
2018-03-21T07:02:27.691Z,14.18
2018-03-21T07:04:56.142Z,14.85
2018-03-21T07:07:23.830Z,13.62
2018-03-21T07:09:51.580Z,13.05
2018-03-21T07:12:19.228Z,12.57
2018-03-21T07:14:58.614Z,12.43
2018-03-21T07:17:26.404Z,10.30
2018-03-21T07:19:54.106Z,8.10
2018-03-21T07:22:21.817Z,8.75
2018-03-21T07:24:50.256Z,10.30
2018-03-21T07:27:17.976Z,10.10
2018-03-21T07:29:45.697Z,8.18
2018-03-21T07:32:13.306Z,9.48
2018-03-21T07:34:41.102Z,8.88
2018-03-21T07:37:08.802Z,8.45
2018-03-21T07:39:36.594Z,8.80
2018-03-21T07:42:04.707Z,9.65
2018-03-21T07:44:32.381Z,8.95
2018-03-21T07:47:00.070Z,9.02
2018-03-21T07:49:27.730Z,8.90
2018-03-21T07:51:55.543Z,8.77
2018-03-21T07:54:23.720Z,8.27
2018-03-21T07:56:52.434Z,8.90
2018-03-21T07:59:20.454Z,9.75
2018-03-21T08:01:48.956Z,9.80
2018-03-21T08:04:16.702Z,9.02
2018-03-21T08:06:44.358Z,8.10
2018-03-21T08:09:11.961Z,8.80
2018-03-21T08:11:39.626Z,8.00
2018-03-21T08:14:08.046Z,8.38
2018-03-21T08:16:35.664Z,8.90
2018-03-21T08:19:03.237Z,8.60
2018-03-21T08:21:30.938Z,7.85
2018-03-21T08:23:58.563Z,8.00
2018-03-21T08:26:26.158Z,7.30
2018-03-21T08:28:53.909Z,7.78
2018-03-21T08:31:21.564Z,6.87
2018-03-21T08:33:49.128Z,7.07
2018-03-21T08:36:16.767Z,7.35
2018-03-21T08:38:45.098Z,6.32
2018-03-21T08:41:12.837Z,7.10
2018-03-21T08:43:41.201Z,7.47
2018-03-21T08:46:09.635Z,6.60
2018-03-21T08:48:38.132Z,8.15
2018-03-21T08:51:05.666Z,7.40
2018-03-21T08:53:33.314Z,6.80
2018-03-21T08:56:01.411Z,6.45
2018-03-21T08:58:29.978Z,7.18
2018-03-21T09:00:57.582Z,7.50
2018-03-21T09:03:26.001Z,8.60
2018-03-21T09:05:54.002Z,7.10
2018-03-21T09:08:21.605Z,6.18
2018-03-21T09:10:49.997Z,6.70
2018-03-21T09:13:17.611Z,6.93
2018-03-21T09:15:45.212Z,6.78
2018-03-21T09:18:12.852Z,7.12
2018-03-21T09:20:41.226Z,6.75
2018-03-21T09:23:09.583Z,6.72
2018-03-21T09:25:37.320Z,6.43
2018-03-21T09:28:05.379Z,5.90
2018-03-21T09:30:32.994Z,5.28
2018-03-21T09:33:00.626Z,5.65
2018-03-21T09:35:28.235Z,5.12
2018-03-21T09:37:56.610Z,5.80
2018-03-21T09:40:24.938Z,6.15
2018-03-21T09:42:52.982Z,6.20
2018-03-21T09:45:21.544Z,5.00
2018-03-21T09:47:50.290Z,5.62
2018-03-21T09:50:19.635Z,5.78
2018-03-21T09:52:47.840Z,5.20
2018-03-21T09:55:16.013Z,5.43
2018-03-21T09:57:43.982Z,5.20
2018-03-21T10:00:21.606Z,4.57
2018-03-21T10:02:49.188Z,4.35
2018-03-21T10:05:16.813Z,4.82
2018-03-21T10:07:44.671Z,4.75
2018-03-21T10:10:12.330Z,4.75
2018-03-21T10:12:39.947Z,4.53
2018-03-21T10:15:07.536Z,4.25
2018-03-21T10:17:35.907Z,4.57
2018-03-21T10:20:03.559Z,5.25
2018-03-21T10:22:32.058Z,5.72
2018-03-21T10:25:00.459Z,4.40
2018-03-21T10:27:28.062Z,4.90
2018-03-21T10:29:55.682Z,5.77
2018-03-21T10:32:23.305Z,4.87
2018-03-21T10:34:50.896Z,3.80
2018-03-21T10:37:18.464Z,4.03
2018-03-21T10:39:46.109Z,3.47
2018-03-21T10:42:14.446Z,3.60
2018-03-21T10:44:42.063Z,3.47
2018-03-21T10:47:09.638Z,3.55
2018-03-21T10:49:37.285Z,3.80
2018-03-21T10:52:04.973Z,3.83
2018-03-21T10:54:32.624Z,3.60
2018-03-21T10:57:00.982Z,3.53
2018-03-21T10:59:28.558Z,3.55
2018-03-21T11:02:01.745Z,2.85
2018-03-21T11:04:29.292Z,3.53
2018-03-21T11:06:56.958Z,3.28
2018-03-21T11:09:24.595Z,4.35
2018-03-21T11:11:52.246Z,4.03
2018-03-21T11:14:19.807Z,3.80
2018-03-21T11:16:47.400Z,3.85
2018-03-21T11:19:15.931Z,3.50
2018-03-21T11:21:43.568Z,4.50
2018-03-21T11:24:11.148Z,3.70
2018-03-21T11:26:38.784Z,3.85
2018-03-21T11:29:06.397Z,3.70
2018-03-21T11:31:33.994Z,2.67
2018-03-21T11:34:01.644Z,3.05
2018-03-21T11:36:29.287Z,3.70
2018-03-21T11:38:56.959Z,2.85
2018-03-21T11:41:24.570Z,2.60
2018-03-21T11:43:52.192Z,2.75
2018-03-21T11:46:20.556Z,3.22
2018-03-21T11:48:48.185Z,2.72
2018-03-21T11:51:15.759Z,3.35
2018-03-21T11:53:43.336Z,2.67
2018-03-21T11:56:11.726Z,2.70
2018-03-21T11:58:40.134Z,3.43
